Terminal Aerodrome Forecast
Issued by NWS Rapid City, SD

Home | Current Version | Previous Version | Text Only | Print | Product List | Glossary Off
Versions: 1 2 3 4 5 6 7 8 9 10 11 12 13

000
FTUS43 KUNR 020520
TAFRAP
TAF
KRAP 020520Z 0206/0306 VRB05KT P6SM BKN070
     FM020800 VRB05KT P6SM OVC015
     FM021100 VRB05KT 3SM BR OVC009
     FM021500 VRB05KT P6SM SCT040=

USA.gov is the U.S. government's official web portal to all federal, state and local government web resources and services.